createdAt,value
2018-06-29T00:02:25.147Z,18.80
2018-06-29T00:04:53.552Z,18.74
2018-06-29T00:07:21.715Z,18.65
2018-06-29T00:09:49.983Z,18.59
2018-06-29T00:12:18.213Z,18.56
2018-06-29T00:14:46.823Z,18.53
2018-06-29T00:17:15.008Z,18.51
2018-06-29T00:19:43.291Z,18.47
2018-06-29T00:22:11.649Z,18.29
2018-06-29T00:24:40.037Z,18.21
2018-06-29T00:27:08.480Z,18.19
2018-06-29T00:29:36.890Z,18.20
2018-06-29T00:32:05.363Z,18.17
2018-06-29T00:34:34.367Z,18.16
2018-06-29T00:37:02.415Z,18.10
2018-06-29T00:39:30.820Z,18.07
2018-06-29T00:41:58.881Z,18.03
2018-06-29T00:44:26.920Z,18.00
2018-06-29T00:46:55.072Z,17.98
2018-06-29T00:49:23.111Z,17.92
2018-06-29T00:51:51.357Z,17.91
2018-06-29T00:54:19.727Z,17.84
2018-06-29T00:56:47.934Z,17.75
2018-06-29T00:59:16.186Z,17.65
2018-06-29T01:01:44.315Z,17.57
2018-06-29T01:04:12.463Z,17.58
2018-06-29T01:06:40.499Z,17.57
2018-06-29T01:09:10.399Z,17.56
2018-06-29T01:11:38.435Z,17.51
2018-06-29T01:14:06.742Z,17.45
2018-06-29T01:16:34.877Z,17.36
2018-06-29T01:19:02.916Z,17.29
2018-06-29T01:21:30.972Z,17.24
2018-06-29T01:23:59.007Z,17.20
2018-06-29T01:26:27.036Z,17.08
2018-06-29T01:28:55.102Z,17.02
2018-06-29T01:31:23.132Z,16.98
2018-06-29T01:33:51.181Z,16.97
2018-06-29T01:36:19.389Z,16.95
2018-06-29T01:38:47.534Z,16.92
2018-06-29T01:41:15.775Z,16.91
2018-06-29T01:43:44.020Z,16.87
2018-06-29T01:46:12.061Z,16.84
2018-06-29T01:48:40.089Z,16.80
2018-06-29T01:51:08.224Z,16.77
2018-06-29T01:53:36.236Z,16.73
2018-06-29T01:56:04.255Z,16.72
2018-06-29T01:58:32.297Z,16.69
2018-06-29T02:01:00.336Z,16.67
2018-06-29T02:03:28.368Z,16.67
2018-06-29T02:05:56.387Z,16.65
2018-06-29T02:08:24.604Z,16.63
2018-06-29T02:10:52.679Z,16.63
2018-06-29T02:13:20.772Z,16.61
2018-06-29T02:15:48.923Z,16.56
2018-06-29T02:18:17.136Z,16.49
2018-06-29T02:20:45.313Z,16.42
2018-06-29T02:23:13.531Z,16.35
2018-06-29T02:25:41.685Z,16.32
2018-06-29T02:28:09.939Z,16.34
2018-06-29T02:30:38.096Z,16.33
2018-06-29T02:33:06.258Z,16.32
2018-06-29T02:35:34.302Z,16.30
2018-06-29T02:38:02.348Z,16.29
2018-06-29T02:40:30.423Z,16.25
2018-06-29T02:42:58.439Z,16.19
2018-06-29T02:45:26.814Z,16.10
2018-06-29T02:47:54.820Z,16.10
2018-06-29T02:50:22.844Z,16.07
2018-06-29T02:52:50.952Z,16.05
2018-06-29T02:55:18.992Z,16.05
2018-06-29T02:57:47.030Z,16.04
2018-06-29T03:00:15.052Z,16.04
2018-06-29T03:02:43.144Z,16.06
2018-06-29T03:05:11.176Z,16.06
2018-06-29T03:07:39.192Z,15.98
2018-06-29T03:10:07.224Z,15.98
2018-06-29T03:12:35.236Z,15.95
2018-06-29T03:15:03.267Z,15.96
2018-06-29T03:17:31.284Z,15.97
2018-06-29T03:19:59.291Z,15.94
2018-06-29T03:22:27.399Z,15.91
2018-06-29T03:24:55.834Z,15.87
2018-06-29T03:27:23.847Z,15.92
2018-06-29T03:29:51.904Z,15.95
2018-06-29T03:32:19.928Z,15.94
2018-06-29T03:34:47.948Z,16.00
2018-06-29T03:37:16.006Z,16.04
2018-06-29T03:39:44.064Z,16.03
2018-06-29T03:42:12.116Z,16.02
2018-06-29T03:44:40.355Z,16.02
2018-06-29T03:47:08.382Z,16.02
2018-06-29T03:49:36.419Z,15.99
2018-06-29T03:52:04.466Z,16.05
2018-06-29T03:54:32.495Z,16.09
2018-06-29T03:57:00.540Z,16.15
2018-06-29T03:59:28.748Z,16.18
2018-06-29T04:01:56.860Z,16.19
2018-06-29T04:04:24.911Z,16.21
2018-06-29T04:06:52.959Z,16.22
2018-06-29T04:09:20.994Z,16.19
2018-06-29T04:11:49.225Z,16.17
2018-06-29T04:14:17.200Z,16.18
2018-06-29T04:16:45.230Z,16.27
2018-06-29T04:19:13.616Z,16.37
2018-06-29T04:21:41.647Z,16.49
2018-06-29T04:24:09.667Z,16.65
2018-06-29T04:26:38.015Z,17.05
2018-06-29T04:29:06.040Z,17.95
2018-06-29T04:31:34.084Z,18.89
2018-06-29T04:34:02.199Z,19.70
2018-06-29T04:36:30.548Z,20.82
2018-06-29T04:38:58.616Z,21.90
2018-06-29T04:41:26.651Z,22.68
2018-06-29T04:43:54.708Z,23.58
2018-06-29T04:46:22.915Z,24.34
2018-06-29T04:48:50.961Z,25.09
2018-06-29T04:51:19.081Z,25.48
2018-06-29T04:53:47.187Z,26.02
2018-06-29T04:56:15.295Z,25.96
2018-06-29T04:58:43.477Z,26.44
2018-06-29T05:01:11.878Z,27.16
2018-06-29T05:03:40.295Z,27.42
2018-06-29T05:06:08.507Z,27.79
2018-06-29T05:08:36.547Z,28.05
2018-06-29T05:11:04.612Z,27.85
2018-06-29T05:13:32.679Z,28.17
2018-06-29T05:16:01.077Z,28.22
2018-06-29T05:18:29.129Z,28.45
2018-06-29T05:20:58.143Z,27.90
2018-06-29T05:23:26.184Z,27.93
2018-06-29T05:25:54.762Z,27.94
2018-06-29T05:28:22.810Z,27.75
2018-06-29T05:30:50.951Z,27.91
2018-06-29T05:33:19.431Z,28.21
2018-06-29T05:35:47.645Z,28.32
2018-06-29T05:38:15.787Z,28.62
2018-06-29T05:40:44.014Z,28.48
2018-06-29T05:43:12.529Z,28.91
2018-06-29T05:45:41.023Z,28.83
2018-06-29T05:48:09.521Z,28.77
2018-06-29T05:50:38.696Z,29.28
2018-06-29T05:53:07.089Z,29.56
2018-06-29T05:55:35.145Z,29.56
2018-06-29T05:58:03.190Z,29.99
2018-06-29T06:00:31.223Z,30.24
2018-06-29T06:02:59.290Z,30.04
2018-06-29T06:05:27.324Z,29.93
2018-06-29T06:07:55.406Z,30.06
2018-06-29T06:10:23.488Z,30.22
2018-06-29T06:12:51.871Z,30.15
2018-06-29T06:15:20.083Z,30.32
2018-06-29T06:17:48.389Z,30.77
2018-06-29T06:20:16.891Z,31.25
2018-06-29T06:22:45.352Z,31.09
2018-06-29T06:25:13.505Z,31.37
2018-06-29T06:27:41.702Z,30.37
2018-06-29T06:30:10.006Z,30.85
2018-06-29T06:32:40.570Z,30.71
2018-06-29T06:35:08.683Z,31.40
2018-06-29T06:37:36.955Z,31.40
2018-06-29T06:40:05.244Z,31.69
2018-06-29T06:42:33.283Z,32.11
2018-06-29T06:45:01.316Z,32.54
2018-06-29T06:47:29.391Z,32.88
2018-06-29T06:49:57.420Z,33.01
2018-06-29T06:52:25.444Z,32.93
2018-06-29T06:54:53.484Z,32.77
2018-06-29T06:57:21.542Z,33.04
2018-06-29T06:59:50.176Z,33.06
2018-06-29T07:02:18.395Z,33.35
2018-06-29T07:04:46.632Z,33.20
2018-06-29T07:07:14.821Z,32.78
2018-06-29T07:09:43.207Z,33.17
2018-06-29T07:12:11.257Z,33.57
2018-06-29T07:14:39.640Z,33.40
2018-06-29T07:17:08.763Z,33.20
2018-06-29T07:19:36.836Z,33.47
2018-06-29T07:22:04.992Z,33.38
2018-06-29T07:24:33.122Z,33.47
2018-06-29T07:27:01.046Z,32.87
2018-06-29T07:29:29.084Z,32.87
2018-06-29T07:31:57.132Z,33.17
2018-06-29T07:34:25.159Z,33.25
2018-06-29T07:36:53.196Z,33.49
2018-06-29T07:39:21.428Z,33.67
2018-06-29T07:41:49.572Z,33.91
2018-06-29T07:44:17.845Z,33.74
2018-06-29T07:46:46.332Z,33.64
2018-06-29T07:49:14.478Z,33.92
2018-06-29T07:51:42.970Z,33.55
2018-06-29T07:54:11.368Z,33.83
2018-06-29T07:56:39.790Z,33.80
2018-06-29T07:59:08.016Z,33.66
2018-06-29T08:01:36.111Z,33.63
2018-06-29T08:04:04.177Z,33.87
2018-06-29T08:06:32.194Z,34.06
2018-06-29T08:09:00.220Z,34.26
2018-06-29T08:11:28.264Z,34.39
2018-06-29T08:13:56.279Z,33.99
2018-06-29T08:16:24.384Z,33.68
2018-06-29T08:18:52.451Z,33.18
2018-06-29T08:21:20.736Z,33.16
2018-06-29T08:23:49.070Z,32.41
2018-06-29T08:26:24.128Z,32.72
2018-06-29T08:28:52.210Z,32.23
2018-06-29T08:31:20.363Z,32.33
2018-06-29T08:33:48.453Z,32.56
2018-06-29T08:36:16.673Z,32.35
2018-06-29T08:38:45.263Z,32.60
2018-06-29T08:41:19.106Z,32.41
2018-06-29T08:43:47.453Z,32.43
2018-06-29T08:46:15.512Z,32.32
2018-06-29T08:48:43.520Z,32.20
2018-06-29T08:51:11.553Z,32.12
2018-06-29T08:53:39.563Z,31.91
2018-06-29T08:56:08.015Z,31.35
2018-06-29T08:58:36.047Z,31.46
2018-06-29T09:01:04.102Z,31.28
2018-06-29T09:03:32.120Z,31.28
2018-06-29T09:06:00.148Z,31.27
2018-06-29T09:08:28.184Z,31.09
2018-06-29T09:10:56.277Z,30.84
2018-06-29T09:13:24.495Z,30.61
2018-06-29T09:15:52.525Z,30.56
2018-06-29T09:18:20.586Z,30.60
2018-06-29T09:20:48.620Z,30.74
2018-06-29T09:23:16.644Z,30.80
2018-06-29T09:25:44.691Z,31.05
2018-06-29T09:28:12.711Z,31.33
2018-06-29T09:30:40.767Z,30.55
2018-06-29T09:33:08.801Z,30.53
2018-06-29T09:35:36.852Z,30.20
2018-06-29T09:38:04.907Z,30.31
2018-06-29T09:40:32.971Z,29.88
2018-06-29T09:43:01.116Z,30.79
2018-06-29T09:45:29.176Z,31.10
2018-06-29T09:47:57.325Z,31.27
2018-06-29T09:50:25.315Z,31.67
2018-06-29T09:52:53.740Z,32.28
2018-06-29T09:55:21.772Z,32.76
2018-06-29T09:57:49.904Z,33.14
2018-06-29T10:00:22.355Z,33.38
2018-06-29T10:02:50.399Z,33.21
2018-06-29T10:05:18.439Z,33.40
2018-06-29T10:07:46.497Z,33.26
2018-06-29T10:10:14.519Z,32.86
2018-06-29T10:12:42.569Z,32.68
2018-06-29T10:15:10.587Z,32.16
2018-06-29T10:17:38.648Z,32.06
2018-06-29T10:20:06.816Z,31.07
2018-06-29T10:22:34.755Z,30.08
2018-06-29T10:25:02.833Z,30.13
2018-06-29T10:27:30.825Z,30.02
2018-06-29T10:29:58.843Z,29.77
2018-06-29T10:32:26.880Z,29.45
2018-06-29T10:34:54.956Z,29.30
2018-06-29T10:37:23.020Z,29.16
2018-06-29T10:39:51.042Z,29.26
2018-06-29T10:42:19.072Z,29.02
2018-06-29T10:44:47.295Z,28.71
2018-06-29T10:47:15.250Z,28.56
2018-06-29T10:49:43.324Z,28.20
2018-06-29T10:52:11.364Z,28.27
2018-06-29T10:54:39.408Z,27.88
2018-06-29T10:57:07.790Z,27.76
2018-06-29T10:59:35.959Z,27.81
2018-06-29T11:02:04.020Z,27.84
2018-06-29T11:04:32.108Z,27.79
2018-06-29T11:07:00.308Z,27.86
2018-06-29T11:09:28.363Z,27.74
2018-06-29T11:11:56.460Z,27.67
2018-06-29T11:14:24.584Z,27.56
2018-06-29T11:16:52.683Z,27.76
2018-06-29T11:19:21.054Z,27.85
2018-06-29T11:21:49.178Z,27.88
2018-06-29T11:24:17.627Z,27.86
2018-06-29T11:26:45.704Z,27.82
2018-06-29T11:29:13.938Z,27.92
2018-06-29T11:31:42.928Z,28.04
2018-06-29T11:34:12.607Z,28.17
2018-06-29T11:36:40.697Z,28.31
2018-06-29T11:39:11.384Z,28.01
2018-06-29T11:41:39.599Z,27.90
2018-06-29T11:44:07.697Z,28.00
2018-06-29T11:46:35.925Z,27.94
2018-06-29T11:49:03.991Z,27.98
2018-06-29T11:51:32.064Z,27.84
2018-06-29T11:54:00.031Z,27.78
2018-06-29T11:56:28.032Z,27.79
2018-06-29T11:58:56.121Z,27.87
2018-06-29T12:01:25.047Z,27.90
2018-06-29T12:03:53.109Z,27.77
2018-06-29T12:06:21.148Z,27.88
2018-06-29T12:08:49.156Z,27.93
2018-06-29T12:11:17.196Z,27.87
2018-06-29T12:13:45.229Z,27.89
2018-06-29T12:16:13.260Z,27.87
2018-06-29T12:18:41.308Z,27.91
2018-06-29T12:21:09.363Z,28.02
2018-06-29T12:23:37.400Z,28.08
2018-06-29T12:26:05.669Z,28.02
2018-06-29T12:28:33.716Z,28.04
2018-06-29T12:31:01.763Z,28.06
2018-06-29T12:33:29.812Z,28.10
2018-06-29T12:35:57.853Z,28.17
2018-06-29T12:38:25.907Z,28.11
2018-06-29T12:40:54.164Z,28.00
2018-06-29T12:43:22.464Z,28.01
2018-06-29T12:45:50.940Z,28.10
2018-06-29T12:48:19.190Z,28.39
2018-06-29T12:50:47.500Z,28.47
2018-06-29T12:53:16.167Z,28.50
2018-06-29T12:55:44.706Z,28.51
2018-06-29T12:58:13.372Z,28.49
2018-06-29T13:00:42.226Z,28.52
2018-06-29T13:03:11.005Z,28.54
2018-06-29T13:05:39.723Z,28.52
2018-06-29T13:08:08.392Z,28.34
2018-06-29T13:10:36.710Z,28.53
2018-06-29T13:13:04.936Z,28.43
2018-06-29T13:15:32.985Z,28.34
2018-06-29T13:18:01.040Z,28.35
2018-06-29T13:20:29.097Z,28.41
2018-06-29T13:22:57.159Z,28.40
2018-06-29T13:25:25.204Z,28.49
2018-06-29T13:27:53.248Z,28.34
2018-06-29T13:30:21.516Z,28.19
2018-06-29T13:32:49.763Z,28.39
2018-06-29T13:35:18.415Z,28.25
2018-06-29T13:37:46.824Z,28.46
2018-06-29T13:40:15.083Z,28.51
2018-06-29T13:42:43.831Z,28.46
2018-06-29T13:45:12.706Z,28.64
2018-06-29T13:47:41.521Z,28.78
2018-06-29T13:50:10.270Z,28.78
2018-06-29T13:52:39.107Z,28.86
2018-06-29T13:55:07.563Z,28.88
2018-06-29T13:57:35.828Z,28.84
2018-06-29T14:00:03.937Z,28.81
2018-06-29T14:02:32.032Z,28.85
2018-06-29T14:05:00.028Z,28.72
2018-06-29T14:07:28.067Z,28.71
2018-06-29T14:09:56.168Z,28.82
2018-06-29T14:12:24.332Z,28.74
2018-06-29T14:14:52.524Z,28.75
2018-06-29T14:17:20.644Z,28.81
2018-06-29T14:19:48.923Z,28.96
2018-06-29T14:22:17.424Z,28.86
2018-06-29T14:24:45.604Z,28.99
2018-06-29T14:27:14.049Z,28.83
2018-06-29T14:29:42.705Z,28.76
2018-06-29T14:32:11.479Z,28.88
2018-06-29T14:34:40.686Z,29.00
2018-06-29T14:37:09.298Z,29.03
2018-06-29T14:39:37.563Z,29.07
2018-06-29T14:42:05.970Z,28.93
2018-06-29T14:44:34.109Z,29.10
2018-06-29T14:47:02.167Z,29.20
2018-06-29T14:49:30.207Z,29.08
2018-06-29T14:51:58.229Z,29.14
2018-06-29T14:54:26.272Z,29.08
2018-06-29T14:56:54.932Z,29.04
2018-06-29T14:59:23.474Z,28.92
2018-06-29T15:01:51.768Z,28.87
2018-06-29T15:04:20.264Z,29.01
2018-06-29T15:06:48.832Z,28.83
2018-06-29T15:09:17.183Z,28.65
2018-06-29T15:11:45.521Z,28.70
2018-06-29T15:14:14.205Z,28.63
2018-06-29T15:16:43.116Z,28.71
2018-06-29T15:19:11.844Z,28.75
2018-06-29T15:21:40.918Z,28.92
2018-06-29T15:24:10.593Z,29.00
2018-06-29T15:26:38.867Z,29.06
2018-06-29T15:29:07.000Z,28.77
2018-06-29T15:31:35.047Z,28.78
2018-06-29T15:34:03.037Z,28.86
2018-06-29T15:36:31.067Z,28.84
2018-06-29T15:38:59.089Z,28.77
2018-06-29T15:41:27.116Z,28.93
2018-06-29T15:43:55.159Z,28.98
2018-06-29T15:46:23.253Z,28.89
2018-06-29T15:48:51.575Z,28.89
2018-06-29T15:51:20.171Z,29.01
2018-06-29T15:53:48.553Z,28.97
2018-06-29T15:56:17.200Z,28.93
2018-06-29T15:58:45.579Z,28.81
2018-06-29T16:01:17.582Z,28.68
2018-06-29T16:03:45.980Z,28.74
2018-06-29T16:06:14.432Z,28.75
2018-06-29T16:08:43.619Z,28.86
2018-06-29T16:11:12.568Z,28.87
2018-06-29T16:13:41.517Z,28.86
2018-06-29T16:16:10.932Z,28.81
2018-06-29T16:18:39.612Z,28.79
2018-06-29T16:21:08.943Z,28.78
2018-06-29T16:23:37.129Z,28.69
2018-06-29T16:26:05.170Z,28.65
2018-06-29T16:28:33.220Z,28.69
2018-06-29T16:31:01.272Z,28.90
2018-06-29T16:33:29.304Z,29.00
2018-06-29T16:35:57.512Z,28.86
2018-06-29T16:38:25.553Z,28.91
2018-06-29T16:40:53.695Z,28.86
2018-06-29T16:43:21.701Z,28.65
2018-06-29T16:45:49.716Z,28.76
2018-06-29T16:48:17.915Z,28.56
2018-06-29T16:50:46.026Z,28.34
2018-06-29T16:53:14.023Z,28.15
2018-06-29T16:55:42.067Z,28.18
2018-06-29T16:58:10.089Z,28.16
2018-06-29T17:00:38.145Z,28.17
2018-06-29T17:03:06.555Z,28.14
2018-06-29T17:05:34.588Z,28.06
2018-06-29T17:08:02.592Z,28.03
2018-06-29T17:10:30.641Z,27.91
2018-06-29T17:12:58.686Z,27.76
2018-06-29T17:15:26.716Z,27.64
2018-06-29T17:17:54.730Z,27.59
2018-06-29T17:20:22.776Z,27.52
2018-06-29T17:22:50.809Z,27.53
2018-06-29T17:25:19.471Z,27.55
2018-06-29T17:27:47.488Z,27.43
2018-06-29T17:30:15.539Z,27.39
2018-06-29T17:32:43.548Z,27.33
2018-06-29T17:35:11.574Z,27.29
2018-06-29T17:37:39.584Z,27.23
2018-06-29T17:40:07.667Z,27.12
2018-06-29T17:42:35.746Z,27.01
2018-06-29T17:45:03.764Z,27.10
2018-06-29T17:47:31.782Z,27.21
2018-06-29T17:49:59.839Z,27.23
2018-06-29T17:52:27.895Z,27.11
2018-06-29T17:54:56.021Z,27.12
2018-06-29T17:57:24.056Z,27.02
2018-06-29T17:59:52.135Z,26.94
2018-06-29T18:02:20.227Z,26.90
2018-06-29T18:04:48.223Z,26.84
2018-06-29T18:07:16.299Z,26.94
2018-06-29T18:09:44.356Z,26.92
2018-06-29T18:12:12.715Z,26.86
2018-06-29T18:14:40.715Z,26.87
2018-06-29T18:17:08.727Z,26.71
2018-06-29T18:19:36.763Z,26.62
2018-06-29T18:22:04.787Z,26.61
2018-06-29T18:24:32.815Z,26.51
2018-06-29T18:27:00.848Z,26.44
2018-06-29T18:29:29.207Z,26.45
2018-06-29T18:31:57.218Z,26.44
2018-06-29T18:34:25.251Z,26.41
2018-06-29T18:36:53.518Z,26.34
2018-06-29T18:39:21.633Z,26.28
2018-06-29T18:41:49.667Z,26.30
2018-06-29T18:44:17.800Z,26.18
2018-06-29T18:46:45.936Z,26.09
2018-06-29T18:49:13.976Z,26.07
2018-06-29T18:51:42.037Z,25.95
2018-06-29T18:54:10.347Z,25.89
2018-06-29T18:56:38.573Z,25.85
2018-06-29T18:59:06.761Z,25.86
2018-06-29T19:01:34.867Z,25.77
2018-06-29T19:04:03.396Z,25.70
2018-06-29T19:06:31.500Z,25.64
2018-06-29T19:08:59.552Z,25.59
2018-06-29T19:11:27.619Z,25.45
2018-06-29T19:13:55.771Z,25.33
2018-06-29T19:16:23.823Z,25.24
2018-06-29T19:18:51.896Z,25.14
2018-06-29T19:21:20.035Z,25.10
2018-06-29T19:23:48.539Z,24.98
2018-06-29T19:26:16.857Z,24.82
2018-06-29T19:28:45.260Z,24.77
2018-06-29T19:31:14.030Z,24.72
2018-06-29T19:33:42.675Z,24.62
2018-06-29T19:36:10.882Z,24.50
2018-06-29T19:38:39.197Z,24.44
2018-06-29T19:41:07.448Z,24.31
2018-06-29T19:43:35.533Z,24.18
2018-06-29T19:46:03.635Z,24.17
2018-06-29T19:48:31.822Z,24.08
2018-06-29T19:50:59.957Z,24.01
2018-06-29T19:53:28.376Z,23.91
2018-06-29T19:55:56.433Z,23.81
2018-06-29T19:58:24.490Z,23.74
2018-06-29T20:00:52.567Z,23.67
2018-06-29T20:03:20.708Z,23.58
2018-06-29T20:05:49.133Z,23.48
2018-06-29T20:08:17.586Z,23.40
2018-06-29T20:10:45.825Z,23.35
2018-06-29T20:13:14.127Z,23.28
2018-06-29T20:15:42.578Z,23.21
2018-06-29T20:18:11.359Z,23.19
2018-06-29T20:20:39.903Z,23.12
2018-06-29T20:23:08.343Z,23.03
2018-06-29T20:25:36.429Z,22.96
2018-06-29T20:28:04.957Z,22.90
2018-06-29T20:30:32.992Z,22.82
2018-06-29T20:33:01.244Z,22.77
2018-06-29T20:35:29.577Z,22.68
2018-06-29T20:37:57.635Z,22.67
2018-06-29T20:40:25.663Z,22.63
2018-06-29T20:42:53.728Z,22.61
2018-06-29T20:45:21.814Z,22.54
2018-06-29T20:47:49.968Z,22.51
2018-06-29T20:50:18.165Z,22.39
2018-06-29T20:52:46.724Z,22.40
2018-06-29T20:55:14.894Z,22.39
2018-06-29T20:57:43.409Z,22.35
2018-06-29T21:00:11.977Z,22.33
2018-06-29T21:02:40.206Z,22.30
2018-06-29T21:05:08.264Z,22.26
2018-06-29T21:07:36.291Z,22.24
2018-06-29T21:10:04.729Z,22.21
2018-06-29T21:12:32.794Z,22.16
2018-06-29T21:15:00.838Z,22.13
2018-06-29T21:17:29.053Z,22.06
2018-06-29T21:19:57.091Z,22.00
2018-06-29T21:22:25.179Z,21.92
2018-06-29T21:24:53.246Z,21.81
2018-06-29T21:27:21.396Z,21.74
2018-06-29T21:29:49.644Z,21.73
2018-06-29T21:32:17.935Z,21.70
2018-06-29T21:34:46.204Z,21.66
2018-06-29T21:37:14.476Z,21.67
2018-06-29T21:39:43.258Z,21.63
2018-06-29T21:42:11.667Z,21.60
2018-06-29T21:44:40.113Z,21.58
2018-06-29T21:47:08.361Z,21.53
2018-06-29T21:49:36.340Z,21.52
2018-06-29T21:52:04.496Z,21.49
2018-06-29T21:54:32.558Z,21.47
2018-06-29T21:57:00.599Z,21.40
2018-06-29T21:59:28.640Z,21.29
2018-06-29T22:01:56.680Z,21.26
2018-06-29T22:04:24.740Z,21.20
2018-06-29T22:06:52.787Z,21.19
2018-06-29T22:09:20.820Z,21.11
2018-06-29T22:11:48.864Z,21.02
2018-06-29T22:14:16.905Z,20.93
2018-06-29T22:16:44.967Z,20.92
2018-06-29T22:19:13.014Z,20.88
2018-06-29T22:21:41.071Z,20.85
2018-06-29T22:24:09.107Z,20.79
2018-06-29T22:26:37.131Z,20.76
2018-06-29T22:29:05.176Z,20.61
2018-06-29T22:31:33.220Z,20.71
2018-06-29T22:34:01.276Z,20.69
2018-06-29T22:36:29.312Z,20.62
2018-06-29T22:38:57.379Z,20.58
2018-06-29T22:41:25.417Z,20.57
2018-06-29T22:43:53.471Z,20.54
2018-06-29T22:46:21.527Z,20.50
2018-06-29T22:48:49.578Z,20.43
2018-06-29T22:51:17.618Z,20.35
2018-06-29T22:53:45.655Z,20.29
2018-06-29T22:56:13.696Z,20.25
2018-06-29T22:58:41.735Z,20.21
2018-06-29T23:01:09.849Z,20.19
2018-06-29T23:03:43.283Z,20.12
2018-06-29T23:06:11.445Z,20.09
2018-06-29T23:08:39.468Z,20.01
2018-06-29T23:11:07.494Z,19.98
2018-06-29T23:13:35.551Z,19.99
2018-06-29T23:16:03.608Z,19.96
2018-06-29T23:18:31.780Z,19.96
2018-06-29T23:20:59.871Z,19.96
2018-06-29T23:23:27.880Z,19.93
2018-06-29T23:25:55.936Z,19.90
2018-06-29T23:28:23.977Z,19.87
2018-06-29T23:30:52.043Z,19.83
2018-06-29T23:33:20.087Z,19.81
2018-06-29T23:35:48.131Z,19.71
2018-06-29T23:38:16.154Z,19.71
2018-06-29T23:40:44.179Z,19.72
2018-06-29T23:43:12.210Z,19.56
2018-06-29T23:45:40.253Z,19.69
2018-06-29T23:48:08.303Z,19.65
2018-06-29T23:50:36.537Z,19.63
2018-06-29T23:53:04.624Z,19.60
2018-06-29T23:55:32.672Z,19.59
2018-06-29T23:58:00.810Z,19.58
